Pine Village, Pennsylvania
Current Conditions -  °F | °C
As of 1:54 AM on Monday 24 Nov 2014 (Local Time) from KIPT Reporting Station
Heavy Rain Heavy Rain  
Wind Chill: 50°   Ceiling: 1200
Heat Index: 50°   Visibility: 4mi
Dew Point: 48°   Wind: 12mph
Humidity: 93%   Direction: 80°E
Pressure: 29.64"   Gusts: NA
Location:  41.3465°N, 77.3228°W
Report Text: KIPT 240654Z AUTO 08010KT 4SM +RA BR OVC012 10/09 A2964 RMK AO2 PRESFR SLP039 P0016 T01000089
Loading
Personal Weather Stations






























Interactive Weather Map New forecast layout! Learn more

10-Day Weather Forecast

Advertisements
Track Severe Weather on mobile